createdAt,value
2023-02-03T00:00:51.712Z,16.90
2023-02-03T00:03:19.774Z,13.93
2023-02-03T00:05:47.852Z,12.17
2023-02-03T00:08:17.263Z,13.63
2023-02-03T00:10:48.902Z,16.03
2023-02-03T00:13:16.989Z,17.07
2023-02-03T00:15:45.175Z,14.30
2023-02-03T00:18:13.209Z,14.77
2023-02-03T00:20:41.273Z,16.03
2023-02-03T00:23:10.043Z,13.17
2023-02-03T00:25:39.669Z,13.63
2023-02-03T00:28:07.787Z,13.47
2023-02-03T00:30:35.967Z,15.20
2023-02-03T00:33:06.885Z,14.70
2023-02-03T00:35:34.968Z,17.80
2023-02-03T00:38:02.997Z,14.97
2023-02-03T00:40:31.038Z,15.00
2023-02-03T00:43:00.500Z,14.07
2023-02-03T00:45:28.544Z,18.10
2023-02-03T00:47:56.587Z,13.73
2023-02-03T00:50:24.982Z,18.57
2023-02-03T00:52:53.175Z,14.80
2023-02-03T00:55:21.218Z,13.93
2023-02-03T00:57:49.290Z,14.90
2023-02-03T01:00:20.827Z,15.13
2023-02-03T01:02:49.023Z,15.63
2023-02-03T01:05:17.120Z,16.50
2023-02-03T01:07:45.174Z,18.03
2023-02-03T01:10:14.806Z,16.30
2023-02-03T01:12:42.858Z,14.43
2023-02-03T01:15:13.759Z,13.57
2023-02-03T01:17:43.143Z,18.57
2023-02-03T01:20:13.951Z,14.50
2023-02-03T01:22:42.012Z,13.07
2023-02-03T01:25:10.306Z,16.27
2023-02-03T01:27:38.429Z,13.97
2023-02-03T01:30:07.006Z,20.20
2023-02-03T01:32:35.059Z,15.13
2023-02-03T01:35:08.982Z,20.90
2023-02-03T01:37:37.025Z,13.97
2023-02-03T01:40:05.658Z,15.77
2023-02-03T01:42:34.432Z,20.23
2023-02-03T01:45:02.568Z,14.00
2023-02-03T01:47:32.345Z,15.10
2023-02-03T01:50:10.410Z,15.03
2023-02-03T01:52:38.495Z,15.17
2023-02-03T01:55:08.045Z,12.83
2023-02-03T01:57:37.925Z,16.90
2023-02-03T02:00:06.735Z,15.63
2023-02-03T02:02:34.872Z,16.50
2023-02-03T02:05:05.687Z,12.33
2023-02-03T02:07:35.603Z,13.97
2023-02-03T02:10:03.679Z,18.07
2023-02-03T02:12:31.748Z,14.27
2023-02-03T02:14:59.778Z,18.57
2023-02-03T02:17:41.602Z,15.03
2023-02-03T02:21:01.688Z,14.43
2023-02-03T02:24:06.136Z,13.60
2023-02-03T02:26:56.204Z,14.87
2023-02-03T02:29:45.064Z,19.37
2023-02-03T02:32:20.233Z,16.70
2023-02-03T02:34:51.992Z,13.57
2023-02-03T02:37:24.288Z,14.13
2023-02-03T02:39:55.536Z,16.00
2023-02-03T02:42:27.300Z,15.53
2023-02-03T02:44:57.202Z,17.90
2023-02-03T02:47:26.677Z,12.27
2023-02-03T02:49:57.649Z,15.10
2023-02-03T02:52:25.694Z,15.90
2023-02-03T02:54:54.975Z,18.30
2023-02-03T02:57:23.206Z,14.83
2023-02-03T02:59:51.314Z,15.90
2023-02-03T03:02:19.337Z,12.00
2023-02-03T03:04:49.133Z,13.57
2023-02-03T03:07:19.995Z,16.30
2023-02-03T03:09:49.640Z,14.47
2023-02-03T03:12:19.766Z,13.93
2023-02-03T03:14:49.786Z,16.53
2023-02-03T03:17:18.831Z,13.77
2023-02-03T03:19:50.648Z,10.90
2023-02-03T03:22:19.045Z,15.33
2023-02-03T03:24:48.636Z,12.60
2023-02-03T03:27:20.246Z,12.90
2023-02-03T03:29:49.841Z,14.40
2023-02-03T03:32:17.963Z,12.67
2023-02-03T03:34:45.994Z,13.93
2023-02-03T03:37:17.487Z,14.23
2023-02-03T03:39:47.746Z,12.60
2023-02-03T03:42:20.364Z,14.33
2023-02-03T03:44:52.208Z,14.27
2023-02-03T03:47:47.846Z,13.00
2023-02-03T03:50:18.846Z,11.47
2023-02-03T03:52:56.835Z,13.60
2023-02-03T03:55:25.084Z,13.50
2023-02-03T03:57:54.678Z,9.90
2023-02-03T04:00:25.725Z,13.13
2023-02-03T04:02:55.166Z,12.77
2023-02-03T04:05:24.150Z,19.30
2023-02-03T04:07:52.200Z,12.13
2023-02-03T04:10:28.735Z,10.23
2023-02-03T04:12:56.955Z,11.70
2023-02-03T04:15:25.085Z,11.80
2023-02-03T04:17:54.599Z,10.77
2023-02-03T04:20:22.717Z,11.17
2023-02-03T04:22:50.941Z,13.90
2023-02-03T04:25:19.116Z,8.40
2023-02-03T04:27:50.482Z,10.50
2023-02-03T04:30:19.348Z,11.30
2023-02-03T04:32:47.430Z,11.80
2023-02-03T04:35:15.563Z,9.30
2023-02-03T04:37:43.620Z,9.60
2023-02-03T04:40:12.723Z,9.10
2023-02-03T04:42:40.825Z,8.93
2023-02-03T04:45:12.037Z,10.70
2023-02-03T04:47:40.400Z,9.00
2023-02-03T04:50:09.111Z,8.63
2023-02-03T04:52:37.170Z,8.23
2023-02-03T04:55:07.914Z,9.60
2023-02-03T04:57:35.946Z,9.70
2023-02-03T05:00:04.024Z,10.27
2023-02-03T05:02:33.460Z,10.20
2023-02-03T05:05:01.514Z,7.20
2023-02-03T05:07:29.566Z,7.53
2023-02-03T05:09:57.604Z,8.37
2023-02-03T05:12:25.648Z,9.80
2023-02-03T05:14:53.700Z,9.00
2023-02-03T05:17:21.766Z,10.53
2023-02-03T05:19:51.168Z,7.73
2023-02-03T05:22:19.224Z,11.20
2023-02-03T05:24:47.443Z,6.70
2023-02-03T05:27:15.484Z,8.97
2023-02-03T05:29:43.505Z,6.57
2023-02-03T05:32:11.561Z,8.53
2023-02-03T05:34:41.389Z,8.33
2023-02-03T05:37:11.792Z,8.17
2023-02-03T05:39:39.816Z,7.30
2023-02-03T05:42:06.863Z,7.03
2023-02-03T05:44:34.912Z,9.97
2023-02-03T05:47:02.965Z,6.03
2023-02-03T05:49:30.976Z,6.03
2023-02-03T05:51:59.075Z,6.77
2023-02-03T05:54:28.573Z,6.10
2023-02-03T05:56:56.632Z,8.50
2023-02-03T05:59:24.681Z,7.27
2023-02-03T06:01:52.731Z,5.33
2023-02-03T06:04:20.873Z,7.60
2023-02-03T06:06:48.953Z,7.03
2023-02-03T06:09:16.981Z,6.50
2023-02-03T06:11:46.410Z,4.97
2023-02-03T06:14:14.461Z,6.63
2023-02-03T06:16:42.600Z,5.93
2023-02-03T06:19:10.789Z,8.57
2023-02-03T06:21:38.859Z,6.13
2023-02-03T06:24:07.213Z,8.87
2023-02-03T06:26:35.269Z,5.67
2023-02-03T06:29:04.729Z,5.77
2023-02-03T06:31:32.849Z,6.07
2023-02-03T06:34:02.666Z,6.37
2023-02-03T06:36:30.731Z,5.13
2023-02-03T06:38:59.279Z,6.10
2023-02-03T06:41:30.683Z,4.50
2023-02-03T06:43:58.875Z,4.77
2023-02-03T06:46:30.257Z,5.73
2023-02-03T06:48:58.398Z,4.63
2023-02-03T06:51:26.465Z,4.33
2023-02-03T06:53:54.550Z,5.00
2023-02-03T06:56:22.596Z,7.27
2023-02-03T06:58:50.633Z,5.13
2023-02-03T07:01:18.754Z,7.40
2023-02-03T07:03:48.307Z,5.93
2023-02-03T07:06:16.333Z,4.50
2023-02-03T07:08:44.455Z,6.80
2023-02-03T07:11:13.222Z,4.80
2023-02-03T07:13:41.261Z,5.37
2023-02-03T07:16:09.362Z,4.73
2023-02-03T07:18:47.467Z,5.90
2023-02-03T07:21:17.898Z,6.97
2023-02-03T07:23:48.105Z,6.00
2023-02-03T07:26:16.123Z,5.80
2023-02-03T07:28:44.227Z,3.80
2023-02-03T07:31:12.389Z,6.80
2023-02-03T07:33:40.597Z,10.43
2023-02-03T07:36:09.717Z,7.60
2023-02-03T07:38:39.152Z,6.50
2023-02-03T07:41:07.394Z,5.47
2023-02-03T07:43:35.464Z,4.97
2023-02-03T07:46:03.520Z,6.13
2023-02-03T07:48:31.551Z,3.43
2023-02-03T07:50:59.584Z,5.63
2023-02-03T07:53:27.783Z,7.20
2023-02-03T07:56:00.299Z,4.50
2023-02-03T07:58:28.342Z,5.40
2023-02-03T08:00:57.337Z,7.47
2023-02-03T08:03:25.376Z,6.10
2023-02-03T08:05:53.599Z,6.10
2023-02-03T08:08:21.685Z,8.20
2023-02-03T08:10:49.751Z,5.93
2023-02-03T08:13:19.210Z,9.17
2023-02-03T08:15:49.269Z,3.93
2023-02-03T08:18:17.412Z,7.27
2023-02-03T08:20:45.466Z,7.10
2023-02-03T08:23:13.529Z,5.60
2023-02-03T08:25:41.556Z,6.50
2023-02-03T08:28:09.667Z,5.50
2023-02-03T08:30:39.512Z,5.93
2023-02-03T08:33:07.561Z,9.57
2023-02-03T08:35:35.717Z,5.47
2023-02-03T08:38:03.735Z,6.23
2023-02-03T08:40:31.774Z,4.40
2023-02-03T08:43:01.344Z,8.83
2023-02-03T08:45:29.441Z,5.23
2023-02-03T08:47:58.897Z,7.17
2023-02-03T08:50:27.198Z,6.17
2023-02-03T08:52:55.476Z,7.27
2023-02-03T08:55:24.637Z,6.30
2023-02-03T08:57:52.698Z,5.00
2023-02-03T09:00:21.771Z,7.63
2023-02-03T09:02:49.799Z,5.63
2023-02-03T09:05:19.375Z,6.93
2023-02-03T09:07:49.295Z,6.53
2023-02-03T09:10:17.704Z,4.77
2023-02-03T09:12:45.729Z,9.50
2023-02-03T09:15:13.783Z,6.77
2023-02-03T09:17:41.821Z,6.70
2023-02-03T09:20:13.375Z,5.03
2023-02-03T09:22:42.919Z,6.83
2023-02-03T09:25:11.099Z,5.10
2023-02-03T09:27:39.157Z,4.47
2023-02-03T09:30:08.292Z,10.43
2023-02-03T09:32:36.343Z,7.07
2023-02-03T09:35:04.473Z,6.23
2023-02-03T09:37:32.546Z,7.27
2023-02-03T09:40:02.591Z,7.53
2023-02-03T09:42:41.530Z,4.93
2023-02-03T09:45:14.350Z,6.27
2023-02-03T09:47:42.968Z,6.87
2023-02-03T09:50:13.836Z,6.87
2023-02-03T09:52:44.242Z,8.00
2023-02-03T09:55:18.443Z,9.73
2023-02-03T09:57:48.601Z,4.73
2023-02-03T10:00:20.746Z,8.50
2023-02-03T10:02:55.771Z,5.30
2023-02-03T10:05:26.618Z,7.97
2023-02-03T10:08:00.423Z,6.70
2023-02-03T10:10:36.957Z,5.43
2023-02-03T10:13:15.714Z,13.37
2023-02-03T10:16:11.587Z,6.93
2023-02-03T10:18:41.382Z,5.70
2023-02-03T10:21:14.585Z,8.30
2023-02-03T10:23:43.903Z,6.90
2023-02-03T10:26:15.925Z,10.90
2023-02-03T10:28:46.940Z,4.23
2023-02-03T10:31:18.159Z,5.23
2023-02-03T10:33:46.249Z,5.30
2023-02-03T10:36:18.440Z,7.50
2023-02-03T10:38:50.298Z,7.37
2023-02-03T10:41:20.295Z,6.07
2023-02-03T10:43:48.391Z,6.00
2023-02-03T10:46:16.542Z,6.37
2023-02-03T10:48:44.613Z,4.70
2023-02-03T10:51:16.769Z,8.27
2023-02-03T10:53:46.218Z,10.33
2023-02-03T10:56:15.335Z,13.83
2023-02-03T10:58:50.430Z,7.33
2023-02-03T11:01:19.162Z,8.70
2023-02-03T11:03:59.505Z,5.80
2023-02-03T11:06:27.671Z,5.87
2023-02-03T11:08:55.703Z,5.63
2023-02-03T11:11:25.888Z,6.03
2023-02-03T11:13:56.468Z,5.30
2023-02-03T11:16:25.574Z,6.70
2023-02-03T11:18:57.550Z,5.60
2023-02-03T11:21:27.045Z,6.40
2023-02-03T11:23:57.674Z,6.70
2023-02-03T11:26:28.635Z,7.50
2023-02-03T11:28:59.657Z,10.80
2023-02-03T11:31:32.758Z,6.83
2023-02-03T11:34:02.359Z,5.30
2023-02-03T11:36:31.666Z,8.13
2023-02-03T11:39:19.995Z,9.27
2023-02-03T11:41:48.281Z,6.27
2023-02-03T11:44:22.646Z,6.47
2023-02-03T11:46:53.119Z,5.50
2023-02-03T11:50:02.025Z,6.57
2023-02-03T11:52:55.437Z,7.10
2023-02-03T11:55:34.827Z,6.10
2023-02-03T11:58:32.269Z,6.30
2023-02-03T12:01:05.540Z,8.73
2023-02-03T12:03:55.741Z,7.87
2023-02-03T12:07:00.035Z,7.27
2023-02-03T12:09:33.270Z,5.83
2023-02-03T12:12:43.621Z,5.50
2023-02-03T12:15:21.939Z,7.17
2023-02-03T12:18:07.537Z,6.27
2023-02-03T12:20:50.475Z,8.90
2023-02-03T12:23:28.302Z,7.27
2023-02-03T12:26:02.256Z,7.37
2023-02-03T12:28:41.683Z,4.43
2023-02-03T12:31:12.739Z,6.30
2023-02-03T12:33:44.711Z,5.57
2023-02-03T12:36:14.898Z,7.90
2023-02-03T12:38:45.331Z,5.40
2023-02-03T12:41:14.807Z,6.50
2023-02-03T12:43:49.177Z,5.40
2023-02-03T12:46:19.311Z,6.20
2023-02-03T12:48:52.007Z,5.60
2023-02-03T12:51:25.818Z,6.33
2023-02-03T12:53:56.730Z,5.23
2023-02-03T12:56:27.114Z,8.10
2023-02-03T12:58:57.304Z,8.00
2023-02-03T13:01:27.085Z,9.43
2023-02-03T13:03:59.513Z,8.83
2023-02-03T13:06:33.327Z,8.23
2023-02-03T13:09:04.010Z,6.57
2023-02-03T13:11:35.049Z,6.50
2023-02-03T13:14:05.148Z,5.67
2023-02-03T13:16:35.192Z,4.90
2023-02-03T13:19:06.891Z,7.07
2023-02-03T13:21:34.937Z,5.50
2023-02-03T13:24:04.742Z,4.60
2023-02-03T13:27:00.852Z,8.10
2023-02-03T13:29:40.863Z,6.83
2023-02-03T13:32:16.174Z,7.93
2023-02-03T13:34:55.869Z,6.83
2023-02-03T13:37:34.406Z,6.97
2023-02-03T13:40:25.544Z,7.30
2023-02-03T13:42:55.387Z,4.67
2023-02-03T13:45:26.679Z,4.83
2023-02-03T13:47:56.102Z,6.03
2023-02-03T13:50:26.867Z,6.57
2023-02-03T13:52:57.575Z,5.70
2023-02-03T13:55:35.319Z,6.70
2023-02-03T13:58:04.302Z,8.30
2023-02-03T14:01:02.246Z,7.07
2023-02-03T14:03:43.705Z,5.03
2023-02-03T14:06:58.905Z,5.40
2023-02-03T14:09:49.511Z,6.13
2023-02-03T14:12:34.369Z,9.10
2023-02-03T14:15:14.282Z,7.07
2023-02-03T14:18:28.196Z,8.43
2023-02-03T14:21:11.806Z,4.47
2023-02-03T14:23:43.977Z,6.33
2023-02-03T14:26:25.664Z,9.40
2023-02-03T14:28:54.062Z,5.50
2023-02-03T14:31:22.893Z,4.60
2023-02-03T14:34:15.883Z,6.17
2023-02-03T14:36:54.955Z,6.50
2023-02-03T14:39:57.533Z,10.27
2023-02-03T14:42:37.847Z,6.67
2023-02-03T14:45:12.806Z,6.17
2023-02-03T14:47:48.999Z,10.83
2023-02-03T14:50:27.579Z,11.13
2023-02-03T14:53:22.691Z,6.40
2023-02-03T14:55:55.132Z,6.90
2023-02-03T14:58:29.217Z,9.10
2023-02-03T15:01:01.632Z,14.90
2023-02-03T15:03:31.128Z,14.70
2023-02-03T15:06:01.494Z,7.87
2023-02-03T15:08:37.343Z,11.30
2023-02-03T15:11:30.601Z,11.10
2023-02-03T15:14:19.318Z,3.37
2023-02-03T15:16:47.607Z,8.50
2023-02-03T15:19:19.077Z,7.17
2023-02-03T15:21:47.364Z,9.77
2023-02-03T15:24:18.688Z,8.37
2023-02-03T15:26:47.110Z,7.00
2023-02-03T15:29:24.758Z,10.47
2023-02-03T15:31:55.645Z,8.73
2023-02-03T15:34:27.047Z,14.50
2023-02-03T15:36:56.680Z,13.40
2023-02-03T15:39:36.179Z,6.80
2023-02-03T15:42:06.223Z,11.70
2023-02-03T15:44:36.823Z,7.40
2023-02-03T15:47:05.279Z,8.03
2023-02-03T15:49:35.174Z,14.23
2023-02-03T15:52:04.136Z,12.23
2023-02-03T15:54:40.438Z,9.97
2023-02-03T15:57:11.025Z,13.37
2023-02-03T15:59:41.201Z,12.00
2023-02-03T16:02:15.956Z,8.50
2023-02-03T16:04:50.252Z,12.60
2023-02-03T16:07:19.365Z,12.00
2023-02-03T16:09:47.411Z,17.43
2023-02-03T16:12:19.511Z,11.50
2023-02-03T16:14:48.958Z,13.30
2023-02-03T16:17:28.542Z,9.60
2023-02-03T16:20:22.870Z,9.97
2023-02-03T16:23:05.496Z,9.40
2023-02-03T16:25:34.483Z,7.70
2023-02-03T16:28:20.407Z,6.00
2023-02-03T16:31:15.065Z,9.67
2023-02-03T16:34:03.945Z,9.43
2023-02-03T16:36:49.347Z,10.83
2023-02-03T16:39:34.744Z,12.23
2023-02-03T16:42:20.240Z,12.23
2023-02-03T16:45:05.940Z,11.03
2023-02-03T16:47:52.773Z,7.37
2023-02-03T16:50:39.902Z,12.50
2023-02-03T16:53:08.496Z,12.00
2023-02-03T16:55:36.550Z,12.50
2023-02-03T16:58:04.604Z,12.30
2023-02-03T17:00:32.678Z,11.40
2023-02-03T17:03:04.366Z,14.67
2023-02-03T17:05:32.727Z,10.53
2023-02-03T17:08:00.953Z,11.33
2023-02-03T17:10:31.775Z,9.00
2023-02-03T17:12:59.843Z,9.70
2023-02-03T17:15:28.090Z,17.70
2023-02-03T17:17:56.271Z,19.20
2023-02-03T17:20:25.893Z,13.67
2023-02-03T17:22:55.901Z,14.57
2023-02-03T17:25:23.974Z,8.33
2023-02-03T17:27:52.098Z,10.47
2023-02-03T17:30:25.848Z,10.43
2023-02-03T17:32:53.916Z,16.20
2023-02-03T17:35:21.940Z,16.27
2023-02-03T17:37:51.363Z,10.93
2023-02-03T17:54:16.688Z,10.90
2023-02-03T17:56:47.504Z,12.27
2023-02-03T17:59:15.540Z,11.67
2023-02-03T18:05:32.555Z,10.17
2023-02-03T18:08:05.911Z,11.93
2023-02-03T18:10:41.660Z,13.30
2023-02-03T18:13:09.728Z,13.40
2023-02-03T18:15:38.807Z,10.33
2023-02-03T18:18:08.069Z,16.10
2023-02-03T18:20:36.151Z,17.10
2023-02-03T18:23:04.224Z,9.80
2023-02-03T18:25:32.258Z,16.67
2023-02-03T18:28:01.794Z,16.57
2023-02-03T18:30:30.128Z,11.97
2023-02-03T18:32:59.910Z,14.10
2023-02-03T18:35:27.952Z,15.90
2023-02-03T18:37:56.003Z,14.70
2023-02-03T18:40:24.072Z,16.33
2023-02-03T18:42:52.144Z,17.50
2023-02-03T18:45:21.597Z,11.33
2023-02-03T18:47:49.639Z,13.13
2023-02-03T18:50:17.910Z,16.43
2023-02-03T18:52:46.134Z,10.77
2023-02-03T18:55:14.246Z,9.60
2023-02-03T18:57:42.297Z,9.70
2023-02-03T19:00:11.640Z,10.87
2023-02-03T19:02:41.076Z,12.80
2023-02-03T19:05:09.681Z,9.33
2023-02-03T19:07:37.998Z,13.27
2023-02-03T19:10:06.462Z,19.93
2023-02-03T19:12:34.482Z,11.73
2023-02-03T19:15:02.564Z,10.60
2023-02-03T19:17:30.740Z,10.97
2023-02-03T19:20:00.172Z,18.40
2023-02-03T19:22:28.204Z,9.10
2023-02-03T19:24:56.880Z,13.23
2023-02-03T19:27:24.907Z,10.73
2023-02-03T19:29:52.940Z,9.53
2023-02-03T19:32:21.044Z,11.53
2023-02-03T19:34:49.143Z,14.97
2023-02-03T19:37:18.550Z,10.07
2023-02-03T19:39:50.347Z,8.63
2023-02-03T19:42:19.946Z,8.87
2023-02-03T19:44:47.938Z,13.40
2023-02-03T19:47:16.149Z,11.80
2023-02-03T19:49:47.302Z,11.10
2023-02-03T19:52:15.353Z,8.77
2023-02-03T19:54:44.782Z,9.40
2023-02-03T19:57:12.870Z,13.00
2023-02-03T19:59:40.974Z,11.90
2023-02-03T20:02:14.301Z,12.40
2023-02-03T20:04:44.187Z,13.33
2023-02-03T20:07:12.681Z,18.40
2023-02-03T20:09:40.743Z,10.37
2023-02-03T20:12:10.213Z,15.30
2023-02-03T20:14:38.296Z,12.97
2023-02-03T20:17:07.540Z,8.77
2023-02-03T20:19:35.603Z,9.83
2023-02-03T20:22:03.662Z,9.20
2023-02-03T20:24:31.706Z,9.30
2023-02-03T20:26:59.748Z,11.20
2023-02-03T20:29:29.325Z,8.70
2023-02-03T20:31:58.727Z,12.83
2023-02-03T20:34:27.437Z,10.47
2023-02-03T20:36:58.539Z,10.23
2023-02-03T20:39:26.615Z,14.00
2023-02-03T20:41:54.659Z,11.50
2023-02-03T20:44:22.855Z,8.83
2023-02-03T20:46:53.527Z,7.90
2023-02-03T20:49:21.731Z,8.80
2023-02-03T20:51:49.765Z,10.23
2023-02-03T20:54:18.581Z,10.90
2023-02-03T20:56:46.770Z,13.30
2023-02-03T20:59:15.225Z,9.90
2023-02-03T21:01:43.391Z,11.90
2023-02-03T21:04:32.230Z,16.97
2023-02-03T21:07:00.253Z,12.97
2023-02-03T21:09:31.939Z,15.60
2023-02-03T21:12:00.004Z,9.00
2023-02-03T21:14:36.659Z,9.77
2023-02-03T21:17:04.783Z,11.20
2023-02-03T21:19:35.246Z,12.83
2023-02-03T21:22:05.424Z,14.60
2023-02-03T21:24:35.541Z,15.20
2023-02-03T21:27:03.650Z,13.70
2023-02-03T21:29:33.841Z,10.70
2023-02-03T21:32:01.956Z,11.93
2023-02-03T21:34:30.761Z,11.60
2023-02-03T21:37:02.848Z,12.07
2023-02-03T21:39:31.696Z,14.40
2023-02-03T21:42:02.093Z,14.53
2023-02-03T21:44:32.480Z,13.10
2023-02-03T21:47:02.876Z,12.60
2023-02-03T21:49:30.944Z,15.73
2023-02-03T21:52:00.409Z,13.70
2023-02-03T21:54:30.253Z,11.57
2023-02-03T21:56:58.819Z,8.10
2023-02-03T21:59:29.637Z,6.43
2023-02-03T22:01:58.547Z,9.90
2023-02-03T22:04:27.205Z,12.17
2023-02-03T22:06:55.359Z,12.03
2023-02-03T22:09:25.547Z,9.47
2023-02-03T22:11:53.726Z,7.13
2023-02-03T22:14:21.849Z,17.60
2023-02-03T22:16:49.895Z,10.43
2023-02-03T22:19:18.458Z,14.43
2023-02-03T22:21:48.555Z,7.80
2023-02-03T22:24:16.638Z,9.27
2023-02-03T22:26:46.018Z,8.80
2023-02-03T22:29:14.061Z,11.70
2023-02-03T22:31:42.792Z,10.03
2023-02-03T22:34:10.988Z,10.13
2023-02-03T22:36:44.020Z,11.00
2023-02-03T22:39:14.042Z,17.07
2023-02-03T22:41:42.105Z,9.40
2023-02-03T22:44:16.054Z,16.57
2023-02-03T22:46:44.250Z,15.90
2023-02-03T22:49:12.266Z,9.60
2023-02-03T22:51:40.693Z,12.20
2023-02-03T22:54:08.745Z,10.63
2023-02-03T22:56:36.817Z,14.17
2023-02-03T22:59:04.865Z,13.23
2023-02-03T23:01:34.620Z,11.33
2023-02-03T23:04:02.732Z,7.30
2023-02-03T23:06:30.798Z,10.83
2023-02-03T23:08:58.810Z,12.87
2023-02-03T23:11:26.946Z,11.30
2023-02-03T23:13:55.025Z,10.20
2023-02-03T23:16:23.171Z,10.17
2023-02-03T23:18:52.564Z,9.93
2023-02-03T23:21:20.607Z,12.47
2023-02-03T23:23:48.635Z,9.90
2023-02-03T23:26:16.731Z,10.20
2023-02-03T23:28:44.758Z,6.87
2023-02-03T23:31:15.300Z,12.50
2023-02-03T23:34:03.998Z,13.13
2023-02-03T23:36:32.451Z,13.63
2023-02-03T23:39:00.494Z,14.23
2023-02-03T23:41:28.561Z,14.50
2023-02-03T23:43:56.583Z,12.00
2023-02-03T23:46:26.563Z,11.30
2023-02-03T23:48:54.905Z,10.10
2023-02-03T23:51:22.955Z,13.90
2023-02-03T23:53:52.338Z,14.17
2023-02-03T23:56:20.380Z,5.40
2023-02-03T23:58:48.524Z,9.40
